createdAt,value
2023-09-22T00:00:27.329Z,82.800000
2023-09-22T00:05:29.432Z,83.066667
2023-09-22T00:10:18.036Z,84.266667
2023-09-22T00:15:21.864Z,85.000000
2023-09-22T00:20:24.029Z,85.000000
2023-09-22T00:25:27.586Z,85.266667
2023-09-22T00:30:31.222Z,86.466667
2023-09-22T00:35:34.153Z,87.666667
2023-09-22T00:40:18.226Z,88.133333
2023-09-22T00:45:22.041Z,89.000000
2023-09-22T00:50:27.262Z,90.071429
2023-09-22T00:55:29.841Z,91.133333
2023-09-22T01:00:33.392Z,92.000000
2023-09-22T01:05:35.186Z,92.533333
2023-09-22T01:10:18.581Z,93.000000
2023-09-22T01:15:21.828Z,93.000000
2023-09-22T01:20:25.404Z,93.000000
2023-09-22T01:25:28.693Z,93.000000
2023-09-22T01:30:33.603Z,93.000000
2023-09-22T01:35:35.316Z,92.933333
2023-09-22T01:40:18.171Z,93.000000
2023-09-22T01:45:20.817Z,92.666667
2023-09-22T01:50:25.349Z,91.000000
2023-09-22T01:55:27.643Z,88.200000
2023-09-22T02:00:31.683Z,85.066667
2023-09-22T02:05:33.774Z,84.133333
2023-09-22T02:10:17.059Z,84.000000
2023-09-22T02:15:21.769Z,84.000000
2023-09-22T02:20:35.019Z,82.000000
2023-09-22T02:25:35.090Z,79.666667
2023-09-22T02:30:19.452Z,79.266667
2023-09-22T02:35:22.569Z,80.928571
2023-09-22T02:40:26.195Z,82.733333
2023-09-22T02:45:30.167Z,83.533333
2023-09-22T02:50:33.284Z,82.533333
2023-09-22T02:55:16.526Z,82.800000
2023-09-22T03:00:21.587Z,83.000000
2023-09-22T03:05:24.583Z,82.928571
2023-09-22T03:10:27.913Z,83.600000
2023-09-22T03:15:31.325Z,84.400000
2023-09-22T03:20:34.587Z,85.200000
2023-09-22T03:25:30.043Z,86.666667
2023-09-22T03:30:22.582Z,87.071429
2023-09-22T03:35:26.775Z,86.533333
2023-09-22T03:40:30.415Z,85.066667
2023-09-22T03:45:33.263Z,85.000000
2023-09-22T03:50:15.956Z,86.333333
2023-09-22T03:55:18.832Z,87.933333
2023-09-22T04:00:21.783Z,89.333333
2023-09-22T04:05:24.687Z,90.000000
2023-09-22T04:10:28.213Z,90.933333
2023-09-22T04:15:31.791Z,91.600000
2023-09-22T04:20:36.403Z,92.000000
2023-09-22T04:25:18.883Z,92.466667
2023-09-22T04:30:23.476Z,93.000000
2023-09-22T04:35:25.387Z,93.200000
2023-09-22T04:40:29.472Z,94.000000
2023-09-22T04:45:33.226Z,94.000000
2023-09-22T04:50:17.731Z,94.000000
2023-09-22T04:55:19.808Z,94.266667
2023-09-22T05:00:23.669Z,94.785714
2023-09-22T05:05:25.741Z,95.000000
2023-09-22T05:10:29.957Z,95.000000
2023-09-22T05:15:33.139Z,95.000000
2023-09-22T05:20:35.732Z,95.000000
2023-09-22T05:25:19.313Z,95.000000
2023-09-22T05:30:23.535Z,95.000000
2023-09-22T05:35:27.532Z,95.000000
2023-09-22T05:40:30.466Z,95.000000
2023-09-22T05:45:34.312Z,95.000000
2023-09-22T05:50:17.267Z,95.066667
2023-09-22T05:55:21.100Z,95.800000
2023-09-22T06:00:24.611Z,96.000000
2023-09-22T06:05:28.108Z,96.000000
2023-09-22T06:10:31.097Z,96.000000
2023-09-22T06:15:34.459Z,96.000000
2023-09-22T06:20:17.399Z,96.000000
2023-09-22T06:25:20.692Z,96.000000
2023-09-22T06:30:25.683Z,95.714286
2023-09-22T06:35:28.323Z,95.000000
2023-09-22T06:40:31.830Z,95.000000
2023-09-22T06:45:15.877Z,95.000000
2023-09-22T06:50:19.490Z,95.000000
2023-09-22T06:55:22.957Z,95.000000
2023-09-22T07:00:26.192Z,95.000000
2023-09-22T07:05:29.273Z,95.000000
2023-09-22T07:10:33.311Z,95.000000
2023-09-22T07:15:36.077Z,95.000000
2023-09-22T07:20:19.143Z,95.000000
2023-09-22T07:25:22.932Z,95.000000
2023-09-22T07:30:25.570Z,95.000000
2023-09-22T07:35:30.896Z,95.000000
2023-09-22T07:40:33.872Z,95.000000
2023-09-22T07:45:17.098Z,95.000000
2023-09-22T07:50:20.286Z,95.000000
2023-09-22T07:55:24.171Z,95.000000
2023-09-22T08:00:25.997Z,95.000000
2023-09-22T08:05:29.233Z,95.000000
2023-09-22T08:10:32.153Z,95.000000
2023-09-22T08:15:34.888Z,95.000000
2023-09-22T08:20:18.000Z,95.000000
2023-09-22T08:25:22.783Z,95.000000
2023-09-22T08:30:38.524Z,95.000000
2023-09-22T08:35:29.754Z,95.000000
2023-09-22T08:40:32.786Z,95.000000
2023-09-22T08:45:36.354Z,95.000000
2023-09-22T08:50:19.228Z,95.000000
2023-09-22T08:55:23.526Z,95.000000
2023-09-22T09:00:26.060Z,95.000000
2023-09-22T09:05:33.545Z,95.000000
2023-09-22T09:10:35.870Z,95.000000
2023-09-22T09:15:17.936Z,94.133333
2023-09-22T09:20:20.201Z,94.000000
2023-09-22T09:25:22.645Z,94.000000
2023-09-22T09:30:24.841Z,94.000000
2023-09-22T09:35:32.563Z,93.533333
2023-09-22T09:40:29.823Z,93.000000
2023-09-22T09:45:32.248Z,93.000000
2023-09-22T09:50:34.648Z,93.000000
2023-09-22T09:55:16.783Z,94.000000
2023-09-22T10:00:19.084Z,95.000000
2023-09-22T10:05:21.927Z,95.000000
2023-09-22T10:10:23.692Z,95.642857
2023-09-22T10:15:26.267Z,96.000000
2023-09-22T10:20:28.356Z,96.000000
2023-09-22T10:25:35.187Z,96.000000
2023-09-22T10:30:32.663Z,96.000000
2023-09-22T10:35:34.448Z,96.000000
2023-09-22T10:40:16.805Z,96.000000
2023-09-22T10:45:19.396Z,96.000000
2023-09-22T10:50:21.244Z,96.000000
2023-09-22T10:55:23.513Z,96.000000
2023-09-22T11:00:25.837Z,96.000000
2023-09-22T11:05:28.251Z,96.000000
2023-09-22T11:10:30.092Z,96.000000
2023-09-22T11:15:32.183Z,96.000000
2023-09-22T11:20:34.249Z,96.000000
2023-09-22T11:25:16.606Z,96.000000
2023-09-22T11:30:18.797Z,96.000000
2023-09-22T11:35:26.223Z,96.666667
2023-09-22T11:40:22.903Z,96.928571
2023-09-22T11:45:24.982Z,97.000000
2023-09-22T11:50:27.553Z,97.000000
2023-09-22T11:55:29.799Z,97.000000
2023-09-22T12:00:31.901Z,97.000000
2023-09-22T12:05:34.523Z,97.000000
2023-09-22T12:10:16.688Z,97.000000
2023-09-22T12:15:18.787Z,97.000000
2023-09-22T12:20:21.554Z,97.000000
2023-09-22T12:25:23.115Z,97.000000
2023-09-22T12:30:25.116Z,97.000000
2023-09-22T12:35:27.585Z,97.000000
2023-09-22T12:40:31.323Z,97.000000
2023-09-22T12:45:33.520Z,97.000000
2023-09-22T12:50:35.814Z,97.000000
2023-09-22T12:55:18.581Z,96.800000
2023-09-22T13:00:20.736Z,96.000000
2023-09-22T13:05:23.031Z,96.000000
2023-09-22T13:10:25.346Z,96.000000
2023-09-22T13:15:27.514Z,96.000000
2023-09-22T13:20:29.990Z,95.600000
2023-09-22T13:25:32.437Z,95.000000
2023-09-22T13:30:34.627Z,94.933333
2023-09-22T13:35:16.485Z,94.000000
2023-09-22T13:40:19.101Z,94.000000
2023-09-22T13:45:21.240Z,94.000000
2023-09-22T13:50:23.628Z,94.000000
2023-09-22T13:55:26.089Z,94.000000
2023-09-22T14:00:28.339Z,94.000000
2023-09-22T14:05:30.527Z,94.000000
2023-09-22T14:10:32.809Z,94.000000
2023-09-22T14:15:35.317Z,94.000000
2023-09-22T14:20:17.122Z,93.133333
2023-09-22T14:25:20.613Z,91.600000
2023-09-22T14:30:22.063Z,89.071429
2023-09-22T14:35:24.256Z,86.666667
2023-09-22T14:40:26.582Z,85.266667
2023-09-22T14:45:29.143Z,84.333333
2023-09-22T14:50:31.959Z,82.533333
2023-09-22T14:55:34.329Z,80.733333
2023-09-22T15:00:16.379Z,82.333333
2023-09-22T15:05:18.790Z,83.333333
2023-09-22T15:10:21.127Z,83.266667
2023-09-22T15:15:23.356Z,83.214286
2023-09-22T15:20:26.000Z,80.466667
2023-09-22T15:25:28.544Z,76.800000
2023-09-22T15:30:30.724Z,76.733333
2023-09-22T15:35:33.135Z,75.866667
2023-09-22T15:40:35.871Z,74.800000
2023-09-22T15:45:17.918Z,76.200000
2023-09-22T15:50:20.251Z,78.733333
2023-09-22T15:55:22.772Z,79.714286
2023-09-22T16:00:25.308Z,80.733333
2023-09-22T16:05:27.911Z,79.266667
2023-09-22T16:10:30.508Z,76.666667
2023-09-22T16:15:32.559Z,76.800000
2023-09-22T16:20:34.771Z,77.000000
2023-09-22T16:25:16.915Z,76.600000
2023-09-22T16:30:19.118Z,75.266667
2023-09-22T16:35:21.345Z,72.333333
2023-09-22T16:40:23.831Z,71.285714
2023-09-22T16:45:26.100Z,71.933333
2023-09-22T16:50:28.462Z,73.733333
2023-09-22T16:55:30.553Z,70.866667
2023-09-22T17:00:32.816Z,71.600000
2023-09-22T17:05:35.083Z,72.533333
2023-09-22T17:10:17.224Z,73.200000
2023-09-22T17:15:19.483Z,73.000000
2023-09-22T17:20:22.056Z,73.714286
2023-09-22T17:25:24.326Z,74.000000
2023-09-22T17:30:26.786Z,74.000000
2023-09-22T17:35:29.549Z,74.066667
2023-09-22T17:40:31.711Z,73.866667
2023-09-22T17:45:33.905Z,74.533333
2023-09-22T17:50:15.842Z,73.466667
2023-09-22T17:55:17.943Z,72.466667
2023-09-22T18:00:20.120Z,72.066667
2023-09-22T18:05:22.470Z,70.428571
2023-09-22T18:10:24.876Z,70.533333
2023-09-22T18:15:26.739Z,70.266667
2023-09-22T18:20:29.105Z,69.200000
2023-09-22T18:25:31.260Z,70.600000
2023-09-22T18:30:33.647Z,70.933333
2023-09-22T18:35:36.038Z,71.533333
2023-09-22T18:40:19.225Z,72.466667
2023-09-22T18:45:20.035Z,72.533333
2023-09-22T18:50:22.453Z,71.142857
2023-09-22T18:55:24.886Z,70.266667
2023-09-22T19:00:27.195Z,69.133333
2023-09-22T19:05:29.348Z,70.466667
2023-09-22T19:10:31.926Z,71.733333
2023-09-22T19:15:34.227Z,73.600000
2023-09-22T19:20:16.163Z,75.666667
2023-09-22T19:25:18.629Z,78.400000
2023-09-22T19:30:21.079Z,77.933333
2023-09-22T19:35:23.393Z,77.642857
2023-09-22T19:40:25.713Z,83.000000
2023-09-22T19:45:27.678Z,84.866667
2023-09-22T19:50:30.181Z,84.000000
2023-09-22T19:55:32.994Z,83.333333
2023-09-22T20:00:35.176Z,80.933333
2023-09-22T20:05:17.801Z,79.066667
2023-09-22T20:10:20.091Z,77.533333
2023-09-22T20:15:22.348Z,76.500000
2023-09-22T20:20:24.691Z,73.333333
2023-09-22T20:25:27.231Z,71.466667
2023-09-22T20:30:29.493Z,69.133333
2023-09-22T20:35:32.011Z,67.533333
2023-09-22T20:40:34.425Z,64.133333
2023-09-22T20:45:16.629Z,63.866667
2023-09-22T20:50:20.643Z,64.600000
2023-09-22T20:55:21.942Z,66.266667
2023-09-22T21:00:24.328Z,66.571429
2023-09-22T21:05:26.698Z,63.933333
2023-09-22T21:10:29.164Z,65.333333
2023-09-22T21:15:31.599Z,62.400000
2023-09-22T21:20:33.713Z,61.266667
2023-09-22T21:25:15.905Z,66.266667
2023-09-22T21:30:18.253Z,61.533333
2023-09-22T21:35:20.647Z,56.600000
2023-09-22T21:40:23.288Z,58.428571
2023-09-22T21:45:25.352Z,57.066667
2023-09-22T21:50:27.294Z,56.266667
2023-09-22T21:55:29.432Z,57.533333
2023-09-22T22:00:17.330Z,53.066667
2023-09-22T22:05:19.712Z,52.933333
2023-09-22T22:10:23.498Z,52.642857
2023-09-22T22:15:24.660Z,50.533333
2023-09-22T22:20:27.014Z,48.733333
2023-09-22T22:25:30.159Z,48.533333
2023-09-22T22:30:32.994Z,46.600000
2023-09-22T22:35:35.315Z,47.200000
2023-09-22T22:40:17.728Z,48.200000
2023-09-22T22:45:20.319Z,47.333333
2023-09-22T22:50:22.868Z,46.928571
2023-09-22T22:55:26.333Z,46.866667
2023-09-22T23:00:28.810Z,48.466667
2023-09-22T23:05:31.378Z,50.266667
2023-09-22T23:10:34.397Z,48.266667
2023-09-22T23:15:16.974Z,46.866667
2023-09-22T23:20:19.674Z,46.333333
2023-09-22T23:25:22.027Z,45.266667
2023-09-22T23:30:25.197Z,45.642857
2023-09-22T23:35:28.012Z,45.200000
2023-09-22T23:40:30.072Z,45.866667
2023-09-22T23:45:32.901Z,42.666667
2023-09-22T23:50:35.202Z,42.933333
2023-09-22T23:55:17.250Z,42.933333
